Time;durP1;ratioP1;P1;durP2;ratioP2;P2;SDS_P1;SDS_P2;PMS_P1;PMS_P2;Temp;Humidity;BMP_temperature;BMP_pressure;BME280_temperature;BME280_humidity;BME280_pressure;Samples;Min_cycle;Max_cycle;Signal;HPM_P1;HPM_P2
2023/01/24 00:01:14;;;;;;;48.42;23.63;;;2.40;99.90;;;;;;5049415;28;20492;-42
2023/01/24 00:03:40;;;;;;;44.15;22.55;;;2.40;99.90;;;;;;5049575;28;20036;-41
2023/01/24 00:06:06;;;;;;;46.50;23.20;;;2.40;99.90;;;;;;5049011;28;20459;-42
2023/01/24 00:08:32;;;;;;;46.58;23.40;;;2.40;99.90;;;;;;5048102;28;20044;-41
2023/01/24 00:11:04;;;;;;;44.10;23.92;;;2.40;99.90;;;;;;5049280;28;20036;-42
2023/01/24 00:13:30;;;;;;;46.83;25.05;;;2.40;99.90;;;;;;5049671;28;20033;-41
2023/01/24 00:16:22;;;;;;;45.25;23.40;;;2.40;99.90;;;;;;5048766;28;20025;-53
2023/01/24 00:18:49;;;;;;;42.95;21.77;;;2.40;99.90;;;;;;5046091;28;20076;-41
2023/01/24 00:21:20;;;;;;;47.95;21.98;;;2.40;99.90;;;;;;5049400;28;20505;-42
2023/01/24 00:23:48;;;;;;;44.38;22.35;;;2.40;99.90;;;;;;5047946;28;20120;-41
2023/01/24 00:26:14;;;;;;;42.42;23.00;;;2.40;99.90;;;;;;5048923;28;20033;-42
2023/01/24 00:28:40;;;;;;;41.40;21.77;;;2.40;99.90;;;;;;5049657;28;20367;-41
2023/01/24 00:31:06;;;;;;;42.97;21.42;;;2.40;99.90;;;;;;5049610;28;20025;-41
2023/01/24 00:33:33;;;;;;;43.45;22.58;;;2.40;99.90;;;;;;5049521;28;20037;-41
2023/01/24 00:35:59;;;;;;;41.60;21.73;;;2.40;99.90;;;;;;5048639;28;20021;-41
2023/01/24 00:38:24;;;;;;;43.17;23.20;;;2.40;99.90;;;;;;5049522;28;20382;-41
2023/01/24 00:40:50;;;;;;;41.20;22.50;;;2.40;99.90;;;;;;5050935;28;20017;-41
2023/01/24 00:43:16;;;;;;;42.83;23.58;;;2.30;99.90;;;;;;5053141;28;20025;-41
2023/01/24 00:45:44;;;;;;;42.53;21.02;;;2.40;99.90;;;;;;5052324;28;20791;-41
2023/01/24 00:48:09;;;;;;;37.75;20.23;;;2.40;99.90;;;;;;5052708;28;20025;-41
2023/01/24 00:50:35;;;;;;;41.70;21.35;;;2.40;99.90;;;;;;5052714;28;20072;-41
2023/01/24 00:53:01;;;;;;;44.28;22.75;;;2.40;99.90;;;;;;5052722;28;20104;-44
2023/01/24 00:55:27;;;;;;;47.28;23.45;;;2.40;99.90;;;;;;5052277;28;20100;-40
2023/01/24 00:57:53;;;;;;;42.10;22.08;;;2.40;99.90;;;;;;5052712;28;20103;-41
2023/01/24 01:00:19;;;;;;;46.17;22.48;;;2.40;99.90;;;;;;5052651;28;20093;-41
2023/01/24 01:02:45;;;;;;;43.88;23.55;;;2.40;99.90;;;;;;5052494;28;20485;-41
2023/01/24 01:05:10;;;;;;;41.53;21.48;;;2.40;99.90;;;;;;5051750;28;20033;-41
2023/01/24 01:07:36;;;;;;;43.53;22.90;;;2.40;99.90;;;;;;5052357;28;20029;-41
2023/01/24 01:10:02;;;;;;;41.20;22.33;;;2.30;99.90;;;;;;5052325;28;20510;-41
2023/01/24 01:12:28;;;;;;;40.85;20.90;;;2.30;99.90;;;;;;5052222;28;20017;-41
2023/01/24 01:14:54;;;;;;;46.10;24.85;;;2.30;99.90;;;;;;5051480;28;20060;-41
2023/01/24 01:17:19;;;;;;;42.35;20.15;;;2.30;99.90;;;;;;5051857;28;20033;-41
2023/01/24 01:19:45;;;;;;;40.47;21.88;;;2.30;99.90;;;;;;5052272;28;20025;-42
2023/01/24 01:22:10;;;;;;;42.10;21.75;;;2.30;99.90;;;;;;5052233;28;20028;-41
2023/01/24 01:24:36;;;;;;;45.80;21.80;;;2.30;99.90;;;;;;5051350;28;20386;-41
2023/01/24 01:27:02;;;;;;;43.33;22.85;;;2.30;99.90;;;;;;5051974;28;20391;-41
2023/01/24 01:29:27;;;;;;;46.55;21.70;;;2.30;99.90;;;;;;5052112;28;20055;-41
2023/01/24 01:31:53;;;;;;;42.88;22.65;;;2.30;99.90;;;;;;5051800;28;20082;-41
2023/01/24 01:34:18;;;;;;;43.95;21.90;;;2.40;99.90;;;;;;5052003;28;20112;-41
2023/01/24 01:36:44;;;;;;;38.58;20.17;;;2.30;99.90;;;;;;5051368;28;20370;-41
2023/01/24 01:39:10;;;;;;;42.35;20.88;;;2.40;99.90;;;;;;5052211;28;20143;-41
2023/01/24 01:41:35;;;;;;;38.33;20.63;;;2.30;99.90;;;;;;5051828;28;20566;-41
2023/01/24 01:44:40;;;;;;;40.75;21.80;;;2.30;99.90;;;;;;5051660;28;20486;-41
2023/01/24 01:47:17;;;;;;;41.33;20.60;;;2.30;99.90;;;;;;5051495;28;20017;-41
2023/01/24 01:49:50;;;;;;;44.17;23.27;;;2.30;99.90;;;;;;5050329;28;20029;-41
2023/01/24 01:52:17;;;;;;;38.15;21.15;;;2.30;99.90;;;;;;5050947;28;20411;-41
2023/01/24 01:54:45;;;;;;;36.92;19.65;;;2.30;99.90;;;;;;5050557;28;20413;-41
2023/01/24 01:57:15;;;;;;;39.00;19.02;;;2.30;99.90;;;;;;5051101;28;20683;-41
2023/01/24 01:59:50;;;;;;;41.63;21.75;;;2.30;99.90;;;;;;5051205;28;20021;-41
2023/01/24 02:02:19;;;;;;;35.95;19.67;;;2.30;99.90;;;;;;5051434;28;20613;-40
2023/01/24 02:04:49;;;;;;;43.47;21.58;;;2.30;99.90;;;;;;5050649;28;20033;-41
2023/01/24 02:07:26;;;;;;;41.22;20.40;;;2.30;99.90;;;;;;5051440;28;20067;-41
2023/01/24 02:09:54;;;;;;;41.03;20.30;;;2.30;99.90;;;;;;5051747;28;20140;-41
2023/01/24 02:12:28;;;;;;;42.10;21.50;;;2.30;99.90;;;;;;5049583;28;20036;-41
2023/01/24 02:17:46;;;;;;;36.20;18.88;;;2.30;99.90;;;;;;5040286;28;20040;-40
2023/01/24 02:20:21;;;;;;;36.28;18.85;;;2.30;99.90;;;;;;5039850;28;20029;-41
2023/01/24 02:23:12;;;;;;;40.33;20.98;;;2.30;99.90;;;;;;5040255;28;20017;-40
2023/01/24 02:26:08;;;;;;;36.95;20.00;;;2.30;99.90;;;;;;5040816;28;20436;-40
2023/01/24 02:28:34;;;;;;;39.92;19.10;;;2.30;99.90;;;;;;5041047;28;20036;-40
2023/01/24 02:31:01;;;;;;;35.65;18.65;;;2.30;99.90;;;;;;5039652;28;20108;-40
2023/01/24 02:33:27;;;;;;;36.65;19.17;;;2.30;99.90;;;;;;5041378;28;20028;-41
2023/01/24 02:36:26;;;;;;;33.95;19.60;;;2.30;99.90;;;;;;5040219;28;20560;-41
2023/01/24 02:39:00;;;;;;;42.25;19.40;;;2.30;99.90;;;;;;5040410;28;20017;-41
2023/01/24 02:41:36;;;;;;;33.33;18.58;;;2.30;99.90;;;;;;5038294;28;20544;-41
2023/01/24 02:44:05;;;;;;;35.78;18.73;;;2.30;99.90;;;;;;5041671;28;20021;-41
2023/01/24 02:46:34;;;;;;;36.22;18.55;;;2.30;99.90;;;;;;5039426;28;20475;-40
2023/01/24 02:49:00;;;;;;;35.38;18.35;;;2.30;99.90;;;;;;5038794;28;20095;-41
2023/01/24 02:54:10;;;;;;;36.28;19.48;;;2.30;99.90;;;;;;5035401;28;20083;-40
2023/01/24 02:59:19;;;;;;;31.40;18.50;;;2.40;99.90;;;;;;5030505;28;20497;-40
2023/01/24 03:01:45;;;;;;;34.88;18.88;;;2.30;99.90;;;;;;5030158;28;20025;-40
2023/01/24 03:04:12;;;;;;;36.90;18.83;;;2.30;99.90;;;;;;5030317;28;20025;-41
2023/01/24 03:06:37;;;;;;;35.92;17.40;;;2.30;99.90;;;;;;5029830;28;20025;-41
2023/01/24 03:09:18;;;;;;;32.65;16.85;;;2.30;99.90;;;;;;5030498;28;20057;-41
2023/01/24 03:11:47;;;;;;;31.95;16.83;;;2.30;99.90;;;;;;5030399;28;20539;-41
2023/01/24 03:36:07;;;;;;;25.98;14.35;;;2.30;99.90;;;;;;5047975;28;20044;-41
2023/01/24 03:41:17;;;;;;;23.27;13.23;;;2.40;99.90;;;;;;5049118;28;20029;-41
2023/01/24 03:43:45;;;;;;;23.40;12.90;;;2.40;99.90;;;;;;5048835;28;20030;-41
2023/01/24 03:46:11;;;;;;;22.88;12.43;;;2.40;99.90;;;;;;5048149;28;20064;-41
2023/01/24 03:48:36;;;;;;;29.48;15.18;;;2.40;99.90;;;;;;5047098;28;20462;-41
2023/01/24 03:53:47;;;;;;;21.73;12.52;;;2.40;99.90;;;;;;5049235;28;20056;-41
2023/01/24 03:56:13;;;;;;;23.00;11.50;;;2.40;99.90;;;;;;5048026;28;20029;-41
2023/01/24 03:58:39;;;;;;;21.25;11.43;;;2.40;99.90;;;;;;5049264;28;20474;-41
2023/01/24 04:01:05;;;;;;;23.92;12.65;;;2.40;99.90;;;;;;5049472;28;20056;-41
2023/01/24 04:03:32;;;;;;;19.50;10.73;;;2.40;99.90;;;;;;5049636;28;20021;-41
2023/01/24 04:05:58;;;;;;;17.85;10.10;;;2.40;99.90;;;;;;5049094;28;20108;-41
2023/01/24 04:08:23;;;;;;;17.00;10.63;;;2.40;99.90;;;;;;5049601;28;20060;-41
2023/01/24 04:10:49;;;;;;;17.65;10.75;;;2.40;99.90;;;;;;5049459;28;20048;-41
2023/01/24 04:13:14;;;;;;;21.08;11.35;;;2.40;99.90;;;;;;5049212;28;20017;-41
2023/01/24 04:15:40;;;;;;;19.17;10.75;;;2.40;99.90;;;;;;5049170;28;20032;-41
2023/01/24 04:18:06;;;;;;;16.73;9.30;;;2.40;99.90;;;;;;5052094;28;20386;-41
2023/01/24 04:20:35;;;;;;;16.25;9.00;;;2.40;99.90;;;;;;5053574;28;20028;-41
2023/01/24 04:23:06;;;;;;;16.00;8.55;;;2.40;99.90;;;;;;5053181;28;20142;-41
2023/01/24 04:25:32;;;;;;;16.55;8.50;;;2.40;99.90;;;;;;5051174;28;20044;-41
2023/01/24 04:27:57;;;;;;;14.90;8.48;;;2.40;99.90;;;;;;5053143;28;20025;-41
2023/01/24 04:30:23;;;;;;;11.73;7.88;;;2.40;99.90;;;;;;5053332;28;20061;-41
2023/01/24 04:32:48;;;;;;;15.20;9.15;;;2.40;99.90;;;;;;5053039;28;20049;-41
2023/01/24 04:35:19;;;;;;;11.57;7.47;;;2.40;99.90;;;;;;5042161;28;20044;-41
2023/01/24 04:37:45;;;;;;;11.57;7.32;;;2.40;99.90;;;;;;5032830;28;20018;-41
2023/01/24 04:40:11;;;;;;;12.20;6.60;;;2.40;99.90;;;;;;5033054;28;20021;-41
2023/01/24 04:42:39;;;;;;;10.27;6.38;;;2.40;99.90;;;;;;5032829;28;20057;-41
2023/01/24 04:45:06;;;;;;;12.05;7.57;;;2.40;99.90;;;;;;5032321;28;20029;-41
2023/01/24 04:47:31;;;;;;;9.02;6.28;;;2.40;99.90;;;;;;5032699;28;20022;-41
2023/01/24 04:49:57;;;;;;;11.38;7.60;;;2.40;99.90;;;;;;5032601;28;20028;-41
2023/01/24 04:52:22;;;;;;;9.50;6.22;;;2.40;99.90;;;;;;5032577;28;20037;-41
2023/01/24 04:54:48;;;;;;;10.43;6.20;;;2.30;99.90;;;;;;5032099;28;20036;-40
2023/01/24 04:57:13;;;;;;;7.90;5.57;;;2.30;99.90;;;;;;5032576;28;20021;-41
2023/01/24 04:59:39;;;;;;;10.85;7.18;;;2.30;99.90;;;;;;5031293;28;20048;-41
2023/01/24 05:02:05;;;;;;;9.05;6.20;;;2.30;99.90;;;;;;5038981;28;20026;-41
2023/01/24 05:04:30;;;;;;;9.75;6.40;;;2.40;99.90;;;;;;5041002;28;20022;-41
2023/01/24 05:06:56;;;;;;;7.75;5.68;;;2.30;99.90;;;;;;5038468;28;20045;-41
2023/01/24 05:09:22;;;;;;;7.30;5.18;;;2.30;99.90;;;;;;5052441;28;20218;-41
2023/01/24 05:11:48;;;;;;;10.23;5.93;;;2.30;99.90;;;;;;5051011;28;20482;-41
2023/01/24 05:14:13;;;;;;;9.25;5.68;;;2.30;99.90;;;;;;5052037;28;20033;-41
2023/01/24 05:16:39;;;;;;;13.32;6.28;;;2.30;99.90;;;;;;5051717;28;20029;-41
2023/01/24 05:19:05;;;;;;;13.15;6.68;;;2.30;99.90;;;;;;5052272;28;20478;-41
2023/01/24 05:21:31;;;;;;;10.82;6.38;;;2.30;99.90;;;;;;5052327;28;20021;-41
2023/01/24 05:23:56;;;;;;;11.82;6.93;;;2.30;99.90;;;;;;5052228;28;20039;-41
2023/01/24 05:26:24;;;;;;;9.02;6.07;;;2.30;99.90;;;;;;5050458;28;20083;-41
2023/01/24 05:28:50;;;;;;;11.32;6.43;;;2.30;99.90;;;;;;5051602;28;20025;-41
2023/01/24 05:31:16;;;;;;;11.65;6.88;;;2.30;99.90;;;;;;5051432;28;20428;-41
2023/01/24 05:33:41;;;;;;;9.93;6.45;;;2.30;99.90;;;;;;5051904;28;20100;-43
2023/01/24 05:36:13;;;;;;;12.98;7.20;;;2.30;99.90;;;;;;5051461;28;20070;-41
2023/01/24 05:38:39;;;;;;;11.10;7.28;;;2.30;99.90;;;;;;5050680;28;20021;-41
2023/01/24 05:41:07;;;;;;;10.85;7.38;;;2.30;99.90;;;;;;5047627;28;20036;-41
2023/01/24 05:43:33;;;;;;;13.93;8.45;;;2.30;99.90;;;;;;5039865;28;20025;-42
2023/01/24 05:46:04;;;;;;;10.32;6.97;;;2.30;99.90;;;;;;5024558;28;20052;-41
2023/01/24 05:48:30;;;;;;;10.30;6.00;;;2.30;99.90;;;;;;5040126;28;20025;-41
2023/01/24 05:51:04;;;;;;;10.10;6.60;;;2.30;99.90;;;;;;5040059;28;20099;-41
2023/01/24 05:53:31;;;;;;;8.82;6.03;;;2.30;99.90;;;;;;5040619;28;20032;-41
2023/01/24 05:55:59;;;;;;;9.20;6.18;;;2.30;99.90;;;;;;5038984;28;20017;-41
2023/01/24 05:58:26;;;;;;;13.02;6.82;;;2.30;99.90;;;;;;5040336;28;20429;-41
2023/01/24 06:00:51;;;;;;;10.75;7.07;;;2.20;99.90;;;;;;5039293;28;20021;-41
2023/01/24 06:03:17;;;;;;;8.63;5.97;;;2.30;99.90;;;;;;5031179;28;20033;-41
2023/01/24 06:05:48;;;;;;;10.43;6.88;;;2.30;99.90;;;;;;5031142;28;20021;-40
2023/01/24 06:08:14;;;;;;;;;;;2.20;99.90;;;;;;5030425;28;20028;-43
2023/01/24 06:10:39;;;;;;;10.85;6.72;;;2.20;99.90;;;;;;5030030;28;19915;-42
2023/01/24 06:13:05;;;;;;;9.55;6.53;;;2.20;99.90;;;;;;5031455;28;20022;-41
2023/01/24 06:15:30;;;;;;;10.75;7.80;;;2.20;99.90;;;;;;5037288;28;20499;-42
2023/01/24 06:17:56;;;;;;;13.00;7.47;;;2.20;99.90;;;;;;5048829;28;20021;-43
2023/01/24 06:20:22;;;;;;;11.65;8.57;;;2.20;99.90;;;;;;5042518;28;20025;-49
2023/01/24 06:23:02;;;;;;;12.00;8.15;;;2.20;99.90;;;;;;5041330;28;20391;-52
2023/01/24 06:25:28;;;;;;;11.10;7.10;;;2.20;99.90;;;;;;5044419;28;20036;-55
2023/01/24 06:27:54;;;;;;;13.45;7.93;;;2.20;99.90;;;;;;5045708;28;20394;-52
2023/01/24 06:30:20;;;;;;;12.10;7.00;;;2.20;99.90;;;;;;5036380;28;20025;-54
2023/01/24 06:33:06;;;;;;;14.77;8.05;;;2.20;99.90;;;;;;5036155;28;20032;-52
2023/01/24 06:35:41;;;;;;;10.40;6.88;;;2.20;99.90;;;;;;5047009;28;20021;-50
2023/01/24 06:38:22;;;;;;;13.30;8.85;;;2.10;99.90;;;;;;5045825;28;20029;-49
2023/01/24 06:40:57;;;;;;;11.77;8.77;;;2.10;99.90;;;;;;5046418;28;20142;-53
2023/01/24 06:43:23;;;;;;;10.90;7.65;;;2.10;99.90;;;;;;5043991;28;20434;-53
2023/01/24 06:45:49;;;;;;;16.75;9.25;;;2.20;99.90;;;;;;5041719;28;20024;-54
2023/01/24 06:48:14;;;;;;;13.85;9.57;;;2.20;99.90;;;;;;5041272;28;20398;-52
2023/01/24 06:50:40;;;;;;;16.02;10.23;;;2.20;99.90;;;;;;5034439;28;20025;-53
2023/01/24 06:53:07;;;;;;;13.30;9.45;;;2.10;99.90;;;;;;5048649;28;20353;-48
2023/01/24 06:55:34;;;;;;;15.88;9.60;;;2.10;99.90;;;;;;5039316;28;20589;-49
2023/01/24 06:58:00;;;;;;;15.55;8.43;;;2.20;99.90;;;;;;5035294;28;20021;-48
2023/01/24 07:00:26;;;;;;;12.18;8.68;;;2.10;99.90;;;;;;5044357;28;20013;-49
2023/01/24 07:03:08;;;;;;;11.80;8.02;;;2.10;99.90;;;;;;5050236;28;20092;-49
2023/01/24 07:05:36;;;;;;;12.05;8.40;;;2.10;99.90;;;;;;5036499;28;20024;-50
2023/01/24 07:08:02;;;;;;;13.63;8.77;;;2.10;99.90;;;;;;5045078;28;20029;-50
2023/01/24 07:10:28;;;;;;;16.02;9.52;;;2.10;99.90;;;;;;5050202;28;20057;-49
2023/01/24 07:12:54;;;;;;;13.93;8.95;;;2.10;99.90;;;;;;5049893;28;20032;-47
2023/01/24 07:15:19;;;;;;;11.32;8.73;;;2.10;99.90;;;;;;5049095;28;20025;-49
2023/01/24 07:17:45;;;;;;;11.45;8.35;;;2.10;99.90;;;;;;5049589;28;20029;-50
2023/01/24 07:20:12;;;;;;;12.95;9.02;;;2.10;99.90;;;;;;5050134;28;20025;-48
2023/01/24 07:22:39;;;;;;;16.23;9.75;;;2.10;99.90;;;;;;5048568;28;20437;-48
2023/01/24 07:25:13;;;;;;;14.35;9.20;;;2.10;99.90;;;;;;5049192;28;20036;-48
2023/01/24 07:27:39;;;;;;;12.23;8.88;;;2.10;99.90;;;;;;5049271;28;20044;-50
2023/01/24 07:30:05;;;;;;;12.68;8.00;;;2.10;99.90;;;;;;5049988;28;20071;-50
2023/01/24 07:32:31;;;;;;;12.18;8.43;;;2.10;99.90;;;;;;5049917;28;20029;-51
2023/01/24 07:34:56;;;;;;;11.90;8.27;;;2.10;99.90;;;;;;5048919;28;20079;-48
2023/01/24 07:37:23;;;;;;;11.80;7.38;;;2.10;99.90;;;;;;5049870;28;20025;-50
2023/01/24 07:39:48;;;;;;;12.98;7.57;;;2.10;99.90;;;;;;5049444;28;20025;-50
2023/01/24 07:42:14;;;;;;;12.90;8.40;;;2.10;99.90;;;;;;5049252;28;20538;-50
2023/01/24 07:44:40;;;;;;;14.43;9.02;;;2.00;99.90;;;;;;5048621;28;20021;-49
2023/01/24 07:47:05;;;;;;;12.60;8.05;;;2.00;99.90;;;;;;5049745;28;20031;-50
2023/01/24 07:49:31;;;;;;;10.52;6.90;;;1.90;99.90;;;;;;5048297;28;20040;-50
2023/01/24 07:51:56;;;;;;;10.00;6.68;;;1.90;99.90;;;;;;5053206;28;20036;-50
2023/01/24 07:54:22;;;;;;;15.45;8.20;;;1.90;99.90;;;;;;5053479;28;20025;-52
2023/01/24 07:56:48;;;;;;;14.82;8.55;;;1.90;99.90;;;;;;5053089;28;20021;-49
2023/01/24 07:59:13;;;;;;;12.70;8.60;;;1.90;99.90;;;;;;5053580;28;20350;-51
2023/01/24 08:01:40;;;;;;;9.65;6.88;;;1.90;99.90;;;;;;5053625;28;20032;-51
2023/01/24 08:04:05;;;;;;;9.95;6.82;;;1.90;99.90;;;;;;5054004;28;20071;-52
2023/01/24 08:06:31;;;;;;;11.55;7.70;;;2.00;99.90;;;;;;5053115;28;20441;-49
2023/01/24 08:08:56;;;;;;;12.13;6.72;;;2.00;99.90;;;;;;5052366;28;20017;-52
2023/01/24 08:11:22;;;;;;;11.40;7.60;;;1.90;99.90;;;;;;5053733;28;20386;-50
2023/01/24 08:13:49;;;;;;;11.35;7.80;;;1.90;99.90;;;;;;5053463;28;20025;-50
2023/01/24 08:16:15;;;;;;;11.70;8.02;;;1.90;99.90;;;;;;5051351;28;20013;-49
2023/01/24 08:18:41;;;;;;;11.75;7.20;;;1.90;99.90;;;;;;5053337;28;20528;-50
2023/01/24 08:21:07;;;;;;;12.40;7.80;;;2.00;99.90;;;;;;5053253;28;20517;-50
2023/01/24 08:23:33;;;;;;;11.70;8.25;;;2.00;99.90;;;;;;5053366;28;20029;-51
2023/01/24 08:26:00;;;;;;;11.80;7.72;;;1.90;99.90;;;;;;5052501;28;20018;-49
2023/01/24 08:28:26;;;;;;;11.07;7.25;;;2.00;99.90;;;;;;5052730;28;20105;-50
2023/01/24 08:30:51;;;;;;;11.07;7.72;;;2.00;99.90;;;;;;5053230;28;20541;-51
2023/01/24 08:33:18;;;;;;;13.98;8.00;;;2.00;99.90;;;;;;5052185;28;20021;-49
2023/01/24 08:35:45;;;;;;;12.40;7.28;;;2.00;99.90;;;;;;5045399;28;20021;-49
2023/01/24 08:38:12;;;;;;;9.48;7.15;;;2.00;99.90;;;;;;5051337;28;20036;-49
2023/01/24 08:40:37;;;;;;;12.52;8.00;;;2.00;99.90;;;;;;5051391;28;20053;-49
2023/01/24 08:43:03;;;;;;;12.57;8.65;;;2.00;99.90;;;;;;5051957;28;20045;-49
2023/01/24 08:45:30;;;;;;;14.48;8.02;;;2.00;99.90;;;;;;5051394;28;20467;-52
2023/01/24 08:47:55;;;;;;;16.80;8.05;;;2.10;99.90;;;;;;5052110;28;20478;-48
2023/01/24 08:50:21;;;;;;;13.75;8.18;;;2.10;99.90;;;;;;5051191;28;20065;-49
2023/01/24 08:52:48;;;;;;;12.25;7.72;;;2.10;99.90;;;;;;5050515;28;20025;-49
2023/01/24 08:55:13;;;;;;;12.68;8.45;;;2.10;99.90;;;;;;5051100;28;20033;-49
2023/01/24 08:57:39;;;;;;;14.05;7.28;;;2.10;99.90;;;;;;5051522;28;20098;-49
2023/01/24 09:00:05;;;;;;;13.70;7.68;;;2.00;99.90;;;;;;5050343;28;20095;-49
2023/01/24 09:02:32;;;;;;;10.68;6.50;;;1.90;99.90;;;;;;5051394;28;20025;-52
2023/01/24 09:04:58;;;;;;;11.00;6.50;;;1.90;99.90;;;;;;5051395;28;20021;-51
2023/01/24 09:07:24;;;;;;;10.55;6.88;;;1.90;99.90;;;;;;5045253;28;20039;-51
2023/01/24 09:09:49;;;;;;;11.77;7.55;;;1.90;99.90;;;;;;5049203;28;20029;-52
2023/01/24 09:12:15;;;;;;;11.27;7.35;;;1.80;99.90;;;;;;5051762;28;20032;-49
2023/01/24 09:14:40;;;;;;;12.20;7.30;;;1.90;99.90;;;;;;5050181;28;20063;-49
2023/01/24 09:17:06;;;;;;;10.50;7.35;;;2.00;99.90;;;;;;5052256;28;20025;-50
2023/01/24 09:19:31;;;;;;;12.02;7.50;;;2.00;99.90;;;;;;5052337;28;20103;-52
2023/01/24 09:21:57;;;;;;;14.07;8.15;;;2.00;99.90;;;;;;5052238;28;20021;-49
2023/01/24 09:24:23;;;;;;;11.52;7.70;;;2.10;99.90;;;;;;5052099;28;20040;-51
2023/01/24 09:26:49;;;;;;;14.95;8.20;;;2.10;99.90;;;;;;5051542;28;20593;-49
2023/01/24 09:29:14;;;;;;;14.23;8.70;;;2.20;99.90;;;;;;5052325;28;20052;-49
2023/01/24 09:31:40;;;;;;;14.70;9.02;;;2.20;99.90;;;;;;5052013;28;20040;-49
2023/01/24 09:34:05;;;;;;;16.60;9.05;;;2.20;99.90;;;;;;5051851;28;20388;-51
2023/01/24 09:36:31;;;;;;;13.13;8.30;;;2.20;99.90;;;;;;5051072;28;20032;-49
2023/01/24 09:38:57;;;;;;;11.55;7.45;;;2.20;99.90;;;;;;5050761;28;20029;-50
2023/01/24 09:41:44;;;;;;;12.57;7.57;;;2.20;99.90;;;;;;5051786;28;20025;-51
2023/01/24 09:44:27;;;;;;;12.35;7.45;;;2.20;99.90;;;;;;5051712;28;20121;-50
2023/01/24 09:46:54;;;;;;;14.25;8.48;;;2.20;99.90;;;;;;5051167;28;20223;-51
2023/01/24 09:50:00;;;;;;;12.60;7.88;;;2.20;99.90;;;;;;5052006;28;20025;-49
2023/01/24 09:52:38;;;;;;;12.38;8.27;;;2.20;99.90;;;;;;5050805;28;20120;-50
2023/01/24 09:55:26;;;;;;;12.38;9.25;;;2.30;99.90;;;;;;5050583;28;20111;-49
2023/01/24 09:58:04;;;;;;;12.43;9.45;;;2.30;99.90;;;;;;5051450;28;20049;-49
2023/01/24 10:00:38;;;;;;;12.30;7.78;;;2.30;99.90;;;;;;5050460;28;20021;-49
2023/01/24 10:03:20;;;;;;;11.75;8.05;;;2.30;99.90;;;;;;5051501;28;20040;-49
2023/01/24 10:05:52;;;;;;;15.00;8.82;;;2.30;99.90;;;;;;5049324;28;20028;-48
2023/01/24 10:08:39;;;;;;;16.58;10.05;;;2.30;99.90;;;;;;5051506;28;20021;-49
2023/01/24 10:11:29;;;;;;;17.20;8.77;;;2.30;99.90;;;;;;5045091;28;20612;-49
2023/01/24 10:14:08;;;;;;;13.40;8.43;;;2.40;99.90;;;;;;5044331;28;20498;-50
2023/01/24 10:16:53;;;;;;;14.15;9.00;;;2.40;99.90;;;;;;5050655;28;20079;-49
2023/01/24 10:19:35;;;;;;;16.88;10.07;;;2.50;99.90;;;;;;5051271;28;20028;-48
2023/01/24 10:22:33;;;;;;;14.45;9.30;;;2.50;99.90;;;;;;5051502;28;20026;-48
2023/01/24 10:25:21;;;;;;;11.98;8.32;;;2.50;99.90;;;;;;5054347;28;20048;-48
2023/01/24 10:27:50;;;;;;;16.15;8.43;;;2.50;99.90;;;;;;5046928;28;20450;-49
2023/01/24 10:30:26;;;;;;;15.73;9.65;;;2.50;99.90;;;;;;5048027;28;20108;-52
2023/01/24 10:32:58;;;;;;;15.05;9.70;;;2.50;99.90;;;;;;5054459;28;20593;-49
2023/01/24 10:35:30;;;;;;;16.95;10.52;;;2.60;99.90;;;;;;5058804;28;20029;-48
2023/01/24 10:38:00;;;;;;;16.40;10.93;;;2.60;99.90;;;;;;5056598;28;20051;-50
2023/01/24 10:40:26;;;;;;;13.00;8.35;;;2.60;99.90;;;;;;5050655;28;20049;-49
2023/01/24 10:42:52;;;;;;;20.73;10.23;;;2.60;99.90;;;;;;5047486;28;20410;-48
2023/01/24 10:45:39;;;;;;;14.80;10.40;;;2.60;99.90;;;;;;5051393;28;20017;-49
2023/01/24 10:48:18;;;;;;;16.63;10.25;;;2.60;99.90;;;;;;5042808;28;20091;-49
2023/01/24 10:50:45;;;;;;;15.70;9.90;;;2.60;99.90;;;;;;5041137;28;20111;-49
2023/01/24 10:53:33;;;;;;;15.45;10.73;;;2.60;99.90;;;;;;5041136;28;20025;-50
2023/01/24 10:56:01;;;;;;;15.45;10.43;;;2.60;99.90;;;;;;5042540;28;20034;-48
2023/01/24 10:58:42;;;;;;;18.45;11.40;;;2.70;99.90;;;;;;5039462;28;20028;-49
2023/01/24 11:01:18;;;;;;;20.17;11.93;;;2.70;99.90;;;;;;5040544;28;20526;-50
2023/01/24 11:03:46;;;;;;;19.80;11.50;;;2.70;99.90;;;;;;5039682;28;20164;-50
2023/01/24 11:06:32;;;;;;;19.80;11.73;;;2.70;99.90;;;;;;5039309;28;20033;-49
2023/01/24 11:09:04;;;;;;;20.55;12.93;;;2.70;99.90;;;;;;5043225;28;20221;-49
2023/01/24 11:11:32;;;;;;;19.25;12.18;;;2.70;99.90;;;;;;5042491;28;20061;-51
2023/01/24 11:14:00;;;;;;;20.88;11.65;;;2.70;99.90;;;;;;5039588;28;20167;-50
2023/01/24 11:16:45;;;;;;;17.05;10.68;;;2.80;99.90;;;;;;5041561;28;20459;-52
2023/01/24 11:19:33;;;;;;;22.40;11.45;;;2.80;99.90;;;;;;5041805;28;20032;-49
2023/01/24 11:22:01;;;;;;;18.00;11.13;;;2.70;99.90;;;;;;5043131;28;20027;-49
2023/01/24 11:24:28;;;;;;;16.58;11.20;;;2.70;99.90;;;;;;5043825;28;20020;-50
2023/01/24 11:27:00;;;;;;;24.17;11.57;;;2.60;99.90;;;;;;5042228;28;20071;-49
2023/01/24 11:29:26;;;;;;;20.40;12.27;;;2.70;99.90;;;;;;5038330;28;20021;-49
2023/01/24 11:31:55;;;;;;;18.58;11.88;;;2.70;99.90;;;;;;5038173;28;20036;-49
2023/01/24 11:34:39;;;;;;;18.30;10.68;;;2.80;99.90;;;;;;5041439;28;20479;-50
2023/01/24 11:37:30;;;;;;;17.80;10.82;;;2.70;99.90;;;;;;5039689;28;20133;-48
2023/01/24 11:39:56;;;;;;;17.52;11.43;;;2.70;99.90;;;;;;5040257;28;20009;-48
2023/01/24 11:42:41;;;;;;;21.40;12.40;;;2.70;99.90;;;;;;5043797;28;20445;-50
2023/01/24 11:45:23;;;;;;;22.35;12.02;;;2.70;99.90;;;;;;5040614;28;20378;-48
2023/01/24 11:48:20;;;;;;;24.77;13.20;;;2.70;99.90;;;;;;5037414;28;20017;-49
2023/01/24 11:51:03;;;;;;;20.40;12.07;;;2.80;99.90;;;;;;5045422;28;20033;-52
2023/01/24 11:54:02;;;;;;;24.77;12.63;;;2.70;99.90;;;;;;5045601;28;20505;-50
2023/01/24 11:56:49;;;;;;;20.73;12.48;;;2.70;99.90;;;;;;5042381;28;20021;-49
2023/01/24 11:59:32;;;;;;;23.77;13.48;;;2.70;99.90;;;;;;5042405;28;20444;-48
2023/01/24 12:02:28;;;;;;;22.45;12.82;;;2.60;99.90;;;;;;5046573;28;20099;-49
2023/01/24 12:05:06;;;;;;;20.90;12.82;;;2.70;99.90;;;;;;5044616;28;20029;-51
2023/01/24 12:07:50;;;;;;;17.92;11.73;;;2.70;99.90;;;;;;5048610;28;20025;-49
2023/01/24 12:10:31;;;;;;;19.42;11.85;;;2.80;99.90;;;;;;5042376;28;20029;-50
2023/01/24 12:13:04;;;;;;;17.45;10.73;;;2.70;99.90;;;;;;5040356;28;20017;-51
2023/01/24 12:16:25;;;;;;;18.90;10.32;;;2.70;99.90;;;;;;5047860;28;20037;-49
2023/01/24 12:19:22;;;;;;;16.67;10.32;;;2.80;99.90;;;;;;5022866;28;20047;-50
2023/01/24 12:21:48;;;;;;;16.58;11.38;;;2.80;99.90;;;;;;5068078;28;20559;-51
2023/01/24 12:24:35;;;;;;;16.13;10.43;;;2.80;99.90;;;;;;5062823;28;20075;-49
2023/01/24 12:27:16;;;;;;;21.73;10.93;;;2.80;99.90;;;;;;5048036;28;20078;-51
2023/01/24 12:29:54;;;;;;;17.27;10.60;;;2.90;99.90;;;;;;5048062;28;20045;-49
2023/01/24 12:32:28;;;;;;;14.43;9.20;;;2.90;99.90;;;;;;5048169;28;20496;-49
2023/01/24 12:35:13;;;;;;;12.25;8.48;;;2.80;99.90;;;;;;5047583;28;20096;-49
2023/01/24 12:37:54;;;;;;;13.35;8.20;;;2.80;99.90;;;;;;5050808;28;20088;-49
2023/01/24 12:40:49;;;;;;;14.07;9.55;;;2.90;99.90;;;;;;5050731;28;20025;-50
2023/01/24 12:43:29;;;;;;;20.27;9.88;;;2.80;99.90;;;;;;5051376;28;20175;-49
2023/01/24 12:46:14;;;;;;;19.15;10.60;;;2.90;99.90;;;;;;5050479;28;20035;-48
2023/01/24 12:48:52;;;;;;;18.67;10.10;;;2.90;99.90;;;;;;5050780;28;20025;-50
2023/01/24 12:51:34;;;;;;;16.95;10.50;;;2.80;99.90;;;;;;5051127;28;20033;-50
2023/01/24 12:54:13;;;;;;;12.05;7.95;;;2.80;99.90;;;;;;5050779;28;20028;-48
2023/01/24 12:56:44;;;;;;;13.63;8.35;;;2.80;99.90;;;;;;5050717;28;20067;-49
2023/01/24 12:59:12;;;;;;;12.60;8.57;;;2.80;99.90;;;;;;5050865;28;20497;-49
2023/01/24 13:02:00;;;;;;;14.65;9.43;;;2.80;99.90;;;;;;5051152;28;20064;-51
2023/01/24 13:04:48;;;;;;;15.15;9.35;;;2.80;99.90;;;;;;5050731;28;20021;-49
2023/01/24 13:07:48;;;;;;;14.93;9.65;;;2.80;99.90;;;;;;5051318;28;20021;-50
2023/01/24 13:10:43;;;;;;;14.88;9.75;;;2.80;99.90;;;;;;5051115;28;20071;-48
2023/01/24 13:13:21;;;;;;;20.88;11.32;;;2.90;99.90;;;;;;5033782;28;20037;-49
2023/01/24 13:16:10;;;;;;;18.45;10.77;;;2.80;99.90;;;;;;5050656;28;20140;-49
2023/01/24 13:19:02;;;;;;;21.17;13.60;;;2.80;99.90;;;;;;5051133;28;20178;-48
2023/01/24 13:21:46;;;;;;;23.67;11.90;;;2.70;99.90;;;;;;5051251;28;20025;-49
2023/01/24 13:24:38;;;;;;;21.95;11.88;;;2.80;99.90;;;;;;5051122;28;20021;-51
2023/01/24 13:27:16;;;;;;;22.63;10.93;;;2.80;99.90;;;;;;5050647;28;20017;-49
2023/01/24 13:30:20;;;;;;;14.63;8.88;;;2.80;99.90;;;;;;5050954;28;20025;-48
2023/01/24 13:32:46;;;;;;;14.32;8.60;;;2.80;99.90;;;;;;5050232;28;20096;-51
2023/01/24 13:35:21;;;;;;;16.20;9.95;;;2.90;99.90;;;;;;5050403;28;20025;-48
2023/01/24 13:38:14;;;;;;;13.68;9.00;;;2.80;99.90;;;;;;5050925;28;20104;-51
2023/01/24 13:40:40;;;;;;;15.90;9.75;;;2.80;99.90;;;;;;5050354;28;20527;-48